< < Back
Terminal Aerodrome Forecast


Current Version              Previous Versions:   1  2  3  4  5  6  7  8  9  

Terminal Aerodrome Forecast

791
FTUS44 KOHX 251720
TAFCSV
TAF
KCSV 251720Z 2518/2618 25005KT P6SM FEW060
     FM261500 27008KT P6SM FEW070=

Latest METAR

319
SAUS70 KWBC 261000 RRI
MTRCSV
METAR KCSV 260953Z AUTO 18004KT 10SM CLR 21/16 A3007 RMK AO2 SLP160
T02110156


USA.gov is the U.S. government's official web portal to all federal, state and local government web resources and services.